sensor_id;sensor_type;location;lat;lon;timestamp;pressure;altitude;pressure_sealevel;temperature;humidity
47220;BME280;32961;51.936;4.788;2024-03-22T00:01:57;102054.28;;;11.23;100.00
47220;BME280;32961;51.936;4.788;2024-03-22T00:04:25;102056.28;;;11.21;100.00
47220;BME280;32961;51.936;4.788;2024-03-22T00:06:52;102046.50;;;11.18;100.00
47220;BME280;32961;51.936;4.788;2024-03-22T00:09:19;102047.38;;;11.19;100.00
47220;BME280;32961;51.936;4.788;2024-03-22T00:11:45;102045.88;;;11.15;100.00
47220;BME280;32961;51.936;4.788;2024-03-22T00:14:12;102036.84;;;11.14;100.00
47220;BME280;32961;51.936;4.788;2024-03-22T00:16:38;102047.72;;;11.14;100.00
47220;BME280;32961;51.936;4.788;2024-03-22T00:19:04;102033.38;;;11.12;100.00
47220;BME280;32961;51.936;4.788;2024-03-22T00:21:31;102031.53;;;11.13;100.00
47220;BME280;32961;51.936;4.788;2024-03-22T00:23:59;102023.50;;;11.11;100.00
47220;BME280;32961;51.936;4.788;2024-03-22T00:26:26;102017.16;;;11.11;100.00
47220;BME280;32961;51.936;4.788;2024-03-22T00:28:53;102017.16;;;11.11;100.00
47220;BME280;32961;51.936;4.788;2024-03-22T00:31:19;102010.88;;;11.10;100.00
47220;BME280;32961;51.936;4.788;2024-03-22T00:33:46;102010.88;;;11.10;100.00
47220;BME280;32961;51.936;4.788;2024-03-22T00:36:12;102008.16;;;11.10;100.00
47220;BME280;32961;51.936;4.788;2024-03-22T00:38:38;101997.13;;;11.00;100.00
47220;BME280;32961;51.936;4.788;2024-03-22T00:41:06;101986.13;;;11.02;100.00
47220;BME280;32961;51.936;4.788;2024-03-22T00:43:33;101979.81;;;11.01;100.00
47220;BME280;32961;51.936;4.788;2024-03-22T00:45:58;101967.44;;;10.97;100.00
47220;BME280;32961;51.936;4.788;2024-03-22T00:48:26;101966.44;;;10.98;100.00
47220;BME280;32961;51.936;4.788;2024-03-22T00:50:52;101962.25;;;10.94;100.00
47220;BME280;32961;51.936;4.788;2024-03-22T00:53:19;101959.66;;;10.93;100.00
47220;BME280;32961;51.936;4.788;2024-03-22T00:55:45;101950.75;;;10.90;100.00
47220;BME280;32961;51.936;4.788;2024-03-22T00:58:18;101961.63;;;10.90;100.00
47220;BME280;32961;51.936;4.788;2024-03-22T01:00:44;101956.31;;;10.89;100.00
47220;BME280;32961;51.936;4.788;2024-03-22T01:03:11;101968.16;;;10.88;100.00
47220;BME280;32961;51.936;4.788;2024-03-22T01:05:38;101953.81;;;10.86;100.00
47220;BME280;32961;51.936;4.788;2024-03-22T01:08:06;101954.66;;;10.86;100.00
47220;BME280;32961;51.936;4.788;2024-03-22T01:10:33;101942.94;;;10.86;100.00
47220;BME280;32961;51.936;4.788;2024-03-22T01:13:00;101944.91;;;10.84;100.00
47220;BME280;32961;51.936;4.788;2024-03-22T01:15:27;101945.91;;;10.83;100.00
47220;BME280;32961;51.936;4.788;2024-03-22T01:17:54;101938.19;;;10.76;100.00
47220;BME280;32961;51.936;4.788;2024-03-22T01:20:20;101954.75;;;10.73;100.00
47220;BME280;32961;51.936;4.788;2024-03-22T01:22:46;101954.13;;;10.70;100.00
47220;BME280;32961;51.936;4.788;2024-03-22T01:25:12;101963.53;;;10.66;100.00
47220;BME280;32961;51.936;4.788;2024-03-22T01:27:39;101948.78;;;10.57;100.00
47220;BME280;32961;51.936;4.788;2024-03-22T01:30:06;101963.22;;;10.57;100.00
47220;BME280;32961;51.936;4.788;2024-03-22T01:32:36;101973.75;;;10.62;100.00
47220;BME280;32961;51.936;4.788;2024-03-22T01:35:02;101968.41;;;10.60;100.00
47220;BME280;32961;51.936;4.788;2024-03-22T01:37:28;101959.66;;;10.57;100.00
47220;BME280;32961;51.936;4.788;2024-03-22T01:39:54;101967.69;;;10.58;100.00
47220;BME280;32961;51.936;4.788;2024-03-22T01:42:21;101964.09;;;10.58;100.00
47220;BME280;32961;51.936;4.788;2024-03-22T01:44:49;101960.72;;;10.54;100.00
47220;BME280;32961;51.936;4.788;2024-03-22T01:47:16;101944.69;;;10.51;100.00
47220;BME280;32961;51.936;4.788;2024-03-22T01:49:43;101943.19;;;10.47;100.00
47220;BME280;32961;51.936;4.788;2024-03-22T01:52:10;101932.53;;;10.44;100.00
47220;BME280;32961;51.936;4.788;2024-03-22T01:54:36;101931.16;;;10.38;100.00
47220;BME280;32961;51.936;4.788;2024-03-22T01:57:03;101921.47;;;10.34;100.00
47220;BME280;32961;51.936;4.788;2024-03-22T01:59:30;101929.63;;;10.34;100.00
47220;BME280;32961;51.936;4.788;2024-03-22T02:01:57;101933.31;;;10.33;100.00
47220;BME280;32961;51.936;4.788;2024-03-22T02:04:23;101924.66;;;10.28;100.00
47220;BME280;32961;51.936;4.788;2024-03-22T02:06:51;101925.88;;;10.24;100.00
47220;BME280;32961;51.936;4.788;2024-03-22T02:09:17;101931.31;;;10.24;100.00
47220;BME280;32961;51.936;4.788;2024-03-22T02:11:46;101926.09;;;10.21;100.00
47220;BME280;32961;51.936;4.788;2024-03-22T02:14:12;101920.91;;;10.18;100.00
47220;BME280;32961;51.936;4.788;2024-03-22T02:16:39;101920.16;;;10.16;100.00
47220;BME280;32961;51.936;4.788;2024-03-22T02:19:06;101919.19;;;10.17;100.00
47220;BME280;32961;51.936;4.788;2024-03-22T02:21:32;101921.66;;;10.20;100.00
47220;BME280;32961;51.936;4.788;2024-03-22T02:23:59;101919.28;;;10.15;100.00
47220;BME280;32961;51.936;4.788;2024-03-22T02:26:26;101920.91;;;10.18;100.00
47220;BME280;32961;51.936;4.788;2024-03-22T02:28:52;101914.84;;;10.14;100.00
47220;BME280;32961;51.936;4.788;2024-03-22T02:31:19;101914.72;;;10.16;100.00
47220;BME280;32961;51.936;4.788;2024-03-22T02:33:45;101908.31;;;10.17;100.00
47220;BME280;32961;51.936;4.788;2024-03-22T02:36:12;101903.72;;;10.17;100.00
47220;BME280;32961;51.936;4.788;2024-03-22T02:38:38;101902.25;;;10.13;100.00
47220;BME280;32961;51.936;4.788;2024-03-22T02:41:06;101903.22;;;10.12;100.00
47220;BME280;32961;51.936;4.788;2024-03-22T02:43:32;101899.75;;;10.10;100.00
47220;BME280;32961;51.936;4.788;2024-03-22T02:45:59;101892.47;;;10.10;100.00
47220;BME280;32961;51.936;4.788;2024-03-22T02:48:24;101880.09;;;10.06;100.00
47220;BME280;32961;51.936;4.788;2024-03-22T02:50:55;101872.94;;;10.05;100.00
47220;BME280;32961;51.936;4.788;2024-03-22T02:53:23;101877.50;;;10.05;100.00
47220;BME280;32961;51.936;4.788;2024-03-22T02:55:50;101873.31;;;10.01;100.00
47220;BME280;32961;51.936;4.788;2024-03-22T02:58:18;101870.59;;;10.01;100.00
47220;BME280;32961;51.936;4.788;2024-03-22T03:00:45;101868.09;;;9.98;100.00
47220;BME280;32961;51.936;4.788;2024-03-22T03:03:11;101869.06;;;9.96;100.00
47220;BME280;32961;51.936;4.788;2024-03-22T03:05:38;101860.81;;;9.98;100.00
47220;BME280;32961;51.936;4.788;2024-03-22T03:08:04;101858.13;;;9.98;100.00
47220;BME280;32961;51.936;4.788;2024-03-22T03:10:31;101851.91;;;9.96;100.00
47220;BME280;32961;51.936;4.788;2024-03-22T03:12:56;101849.97;;;9.98;100.00
47220;BME280;32961;51.936;4.788;2024-03-22T03:15:25;101839.09;;;9.98;100.00
47220;BME280;32961;51.936;4.788;2024-03-22T03:17:50;101840.81;;;9.99;100.00
47220;BME280;32961;51.936;4.788;2024-03-22T03:20:18;101830.06;;;9.98;100.00
47220;BME280;32961;51.936;4.788;2024-03-22T03:22:44;101830.97;;;9.98;100.00
47220;BME280;32961;51.936;4.788;2024-03-22T03:25:10;101824.78;;;9.96;100.00
47220;BME280;32961;51.936;4.788;2024-03-22T03:27:36;101818.47;;;9.95;100.00
47220;BME280;32961;51.936;4.788;2024-03-22T03:30:04;101807.59;;;9.95;100.00
47220;BME280;32961;51.936;4.788;2024-03-22T03:32:31;101807.59;;;9.95;100.00
47220;BME280;32961;51.936;4.788;2024-03-22T03:34:58;101800.56;;;9.93;100.00
47220;BME280;32961;51.936;4.788;2024-03-22T03:37:24;101807.22;;;9.89;100.00
47220;BME280;32961;51.936;4.788;2024-03-22T03:39:51;101806.34;;;9.88;100.00
47220;BME280;32961;51.936;4.788;2024-03-22T03:42:17;101796.22;;;9.90;100.00
47220;BME280;32961;51.936;4.788;2024-03-22T03:44:43;101806.22;;;9.90;100.00
47220;BME280;32961;51.936;4.788;2024-03-22T03:47:09;101805.34;;;9.89;100.00
47220;BME280;32961;51.936;4.788;2024-03-22T03:49:37;101796.09;;;9.92;100.00
47220;BME280;32961;51.936;4.788;2024-03-22T03:52:04;101790.06;;;9.88;100.00
47220;BME280;32961;51.936;4.788;2024-03-22T03:54:30;101799.19;;;9.87;100.00
47220;BME280;32961;51.936;4.788;2024-03-22T03:56:56;101790.16;;;9.87;100.00
47220;BME280;32961;51.936;4.788;2024-03-22T03:59:26;101784.63;;;9.88;100.00
47220;BME280;32961;51.936;4.788;2024-03-22T04:01:53;101781.03;;;9.88;100.00
47220;BME280;32961;51.936;4.788;2024-03-22T04:04:19;101780.06;;;9.89;100.00
47220;BME280;32961;51.936;4.788;2024-03-22T04:06:47;101773.03;;;9.86;100.00
47220;BME280;32961;51.936;4.788;2024-03-22T04:09:13;101774.00;;;9.85;100.00
47220;BME280;32961;51.936;4.788;2024-03-22T04:11:39;101770.53;;;9.83;100.00
47220;BME280;32961;51.936;4.788;2024-03-22T04:14:06;101765.97;;;9.84;100.00
47220;BME280;32961;51.936;4.788;2024-03-22T04:16:32;101770.53;;;9.83;100.00
47220;BME280;32961;51.936;4.788;2024-03-22T04:18:59;101765.09;;;9.83;100.00
47220;BME280;32961;51.936;4.788;2024-03-22T04:21:25;101770.44;;;9.85;100.00
47220;BME280;32961;51.936;4.788;2024-03-22T04:23:53;101767.09;;;9.81;100.00
47220;BME280;32961;51.936;4.788;2024-03-22T04:26:19;101763.97;;;9.74;100.00
47220;BME280;32961;51.936;4.788;2024-03-22T04:28:46;101768.19;;;9.78;100.00
47220;BME280;32961;51.936;4.788;2024-03-22T04:31:13;101769.16;;;9.77;100.00
47220;BME280;32961;51.936;4.788;2024-03-22T04:33:41;101781.00;;;9.76;100.00
47220;BME280;32961;51.936;4.788;2024-03-22T04:36:07;101778.16;;;9.78;100.00
47220;BME280;32961;51.936;4.788;2024-03-22T04:38:35;101785.44;;;9.77;100.00
47220;BME280;32961;51.936;4.788;2024-03-22T04:41:03;101782.97;;;9.74;100.00
47220;BME280;32961;51.936;4.788;2024-03-22T04:43:30;101788.63;;;9.71;100.00
47220;BME280;32961;51.936;4.788;2024-03-22T04:45:57;101794.69;;;9.75;100.00
47220;BME280;32961;51.936;4.788;2024-03-22T04:48:24;101783.94;;;9.73;100.00
47220;BME280;32961;51.936;4.788;2024-03-22T04:50:51;101788.38;;;9.74;100.00
47220;BME280;32961;51.936;4.788;2024-03-22T04:53:19;101780.38;;;9.73;100.00
47220;BME280;32961;51.936;4.788;2024-03-22T04:55:46;101784.19;;;9.70;100.00
47220;BME280;32961;51.936;4.788;2024-03-22T04:58:16;101777.34;;;9.64;100.00
47220;BME280;32961;51.936;4.788;2024-03-22T05:00:42;101794.06;;;9.71;100.00
47220;BME280;32961;51.936;4.788;2024-03-22T05:03:09;101785.28;;;9.68;100.00
47220;BME280;32961;51.936;4.788;2024-03-22T05:05:35;101781.47;;;9.70;100.00
47220;BME280;32961;51.936;4.788;2024-03-22T05:08:02;101790.81;;;9.66;100.00
47220;BME280;32961;51.936;4.788;2024-03-22T05:10:29;101774.78;;;9.63;100.00
47220;BME280;32961;51.936;4.788;2024-03-22T05:12:56;101771.28;;;9.61;100.00
47220;BME280;32961;51.936;4.788;2024-03-22T05:15:23;101778.47;;;9.62;100.00
47220;BME280;32961;51.936;4.788;2024-03-22T05:17:52;101778.25;;;9.65;100.00
47220;BME280;32961;51.936;4.788;2024-03-22T05:20:18;101775.63;;;9.63;100.00
47220;BME280;32961;51.936;4.788;2024-03-22T05:22:46;101774.91;;;9.61;100.00
47220;BME280;32961;51.936;4.788;2024-03-22T05:25:12;101773.50;;;9.56;100.00
47220;BME280;32961;51.936;4.788;2024-03-22T05:27:40;101764.84;;;9.51;100.00
47220;BME280;32961;51.936;4.788;2024-03-22T05:30:08;101763.75;;;9.53;100.00
47220;BME280;32961;51.936;4.788;2024-03-22T05:32:37;101749.84;;;9.58;100.00
47220;BME280;32961;51.936;4.788;2024-03-22T05:35:03;101757.44;;;9.53;100.00
47220;BME280;32961;51.936;4.788;2024-03-22T05:37:30;101755.94;;;9.48;100.00
47220;BME280;32961;51.936;4.788;2024-03-22T05:39:56;101754.19;;;9.47;100.00
47220;BME280;32961;51.936;4.788;2024-03-22T05:42:22;101758.53;;;9.50;100.00
47220;BME280;32961;51.936;4.788;2024-03-22T05:44:48;101748.31;;;9.54;100.00
47220;BME280;32961;51.936;4.788;2024-03-22T05:47:15;101744.75;;;9.53;100.00
47220;BME280;32961;51.936;4.788;2024-03-22T05:49:42;101736.81;;;9.50;100.00
47220;BME280;32961;51.936;4.788;2024-03-22T05:52:09;101748.44;;;9.52;100.00
47220;BME280;32961;51.936;4.788;2024-03-22T05:54:35;101733.00;;;9.53;100.00
47220;BME280;32961;51.936;4.788;2024-03-22T05:57:02;101732.78;;;9.56;100.00
47220;BME280;32961;51.936;4.788;2024-03-22T05:59:28;101724.03;;;9.52;100.00
47220;BME280;32961;51.936;4.788;2024-03-22T06:01:55;101724.03;;;9.52;100.00
47220;BME280;32961;51.936;4.788;2024-03-22T06:04:20;101727.59;;;9.53;100.00
47220;BME280;32961;51.936;4.788;2024-03-22T06:06:50;101716.00;;;9.51;100.00
47220;BME280;32961;51.936;4.788;2024-03-22T06:09:16;101710.47;;;9.52;100.00
47220;BME280;32961;51.936;4.788;2024-03-22T06:11:49;101716.66;;;9.54;100.00
47220;BME280;32961;51.936;4.788;2024-03-22T06:14:15;101714.91;;;9.53;100.00
47220;BME280;32961;51.936;4.788;2024-03-22T06:16:42;101709.69;;;9.50;100.00
47220;BME280;32961;51.936;4.788;2024-03-22T06:19:08;101709.69;;;9.50;100.00
47220;BME280;32961;51.936;4.788;2024-03-22T06:21:35;101708.00;;;9.49;100.00
47220;BME280;32961;51.936;4.788;2024-03-22T06:24:02;101709.47;;;9.53;100.00
47220;BME280;32961;51.936;4.788;2024-03-22T06:26:30;101717.50;;;9.55;100.00
47220;BME280;32961;51.936;4.788;2024-03-22T06:28:55;101722.78;;;9.56;100.00
47220;BME280;32961;51.936;4.788;2024-03-22T06:31:22;101720.34;;;9.53;100.00
47220;BME280;32961;51.936;4.788;2024-03-22T06:33:48;101706.00;;;9.51;100.00
47220;BME280;32961;51.936;4.788;2024-03-22T06:36:15;101710.25;;;9.55;100.00
47220;BME280;32961;51.936;4.788;2024-03-22T06:38:41;101713.47;;;9.60;100.00
47220;BME280;32961;51.936;4.788;2024-03-22T06:41:09;101708.53;;;9.66;100.00
47220;BME280;32961;51.936;4.788;2024-03-22T06:43:35;101710.91;;;9.70;100.00
47220;BME280;32961;51.936;4.788;2024-03-22T06:46:02;101712.66;;;9.71;100.00
47220;BME280;32961;51.936;4.788;2024-03-22T06:48:28;101721.28;;;9.76;100.00
47220;BME280;32961;51.936;4.788;2024-03-22T06:50:55;101710.31;;;9.78;100.00
47220;BME280;32961;51.936;4.788;2024-03-22T06:53:20;101719.59;;;9.87;100.00
47220;BME280;32961;51.936;4.788;2024-03-22T06:55:47;101712.31;;;9.87;100.00
47220;BME280;32961;51.936;4.788;2024-03-22T06:58:14;101722.59;;;9.95;100.00
47220;BME280;32961;51.936;4.788;2024-03-22T07:00:41;101729.75;;;9.96;100.00
47220;BME280;32961;51.936;4.788;2024-03-22T07:03:07;101715.41;;;9.94;100.00
47220;BME280;32961;51.936;4.788;2024-03-22T07:05:34;101721.59;;;9.96;100.00
47220;BME280;32961;51.936;4.788;2024-03-22T07:08:00;101720.34;;;9.89;100.00
47220;BME280;32961;51.936;4.788;2024-03-22T07:10:26;101712.31;;;9.87;100.00
47220;BME280;32961;51.936;4.788;2024-03-22T07:12:54;101722.56;;;9.84;100.00
47220;BME280;32961;51.936;4.788;2024-03-22T07:15:23;101712.69;;;9.83;100.00
47220;BME280;32961;51.936;4.788;2024-03-22T07:17:49;101710.72;;;9.85;100.00
47220;BME280;32961;51.936;4.788;2024-03-22T07:20:16;101713.53;;;9.83;100.00
47220;BME280;32961;51.936;4.788;2024-03-22T07:22:42;101704.19;;;9.87;100.00
47220;BME280;32961;51.936;4.788;2024-03-22T07:25:09;101715.41;;;9.94;100.00
47220;BME280;32961;51.936;4.788;2024-03-22T07:27:35;101711.09;;;9.91;100.00
47220;BME280;32961;51.936;4.788;2024-03-22T07:30:03;101716.19;;;9.96;100.00
47220;BME280;32961;51.936;4.788;2024-03-22T07:32:31;101714.22;;;9.98;100.00
47220;BME280;32961;51.936;4.788;2024-03-22T07:34:58;101720.38;;;10.00;100.00
47220;BME280;32961;51.936;4.788;2024-03-22T07:37:25;101713.47;;;9.96;100.00
47220;BME280;32961;51.936;4.788;2024-03-22T07:39:52;101726.91;;;9.98;100.00
47220;BME280;32961;51.936;4.788;2024-03-22T07:42:18;101710.50;;;9.99;100.00
47220;BME280;32961;51.936;4.788;2024-03-22T07:44:45;101722.22;;;10.00;100.00
47220;BME280;32961;51.936;4.788;2024-03-22T07:47:11;101724.06;;;9.99;100.00
47220;BME280;32961;51.936;4.788;2024-03-22T07:49:39;101714.22;;;9.98;100.00
47220;BME280;32961;51.936;4.788;2024-03-22T07:52:05;101718.63;;;9.99;100.00
47220;BME280;32961;51.936;4.788;2024-03-22T07:54:32;101709.38;;;10.02;100.00
47220;BME280;32961;51.936;4.788;2024-03-22T07:56:58;101713.97;;;10.01;100.00
47220;BME280;32961;51.936;4.788;2024-03-22T07:59:24;101698.78;;;9.99;100.00
47220;BME280;32961;51.936;4.788;2024-03-22T08:01:50;101699.16;;;10.05;100.00
47220;BME280;32961;51.936;4.788;2024-03-22T08:04:17;101702.97;;;10.03;100.00
47220;BME280;32961;51.936;4.788;2024-03-22T08:06:45;101702.47;;;9.98;100.00
47220;BME280;32961;51.936;4.788;2024-03-22T08:09:12;101698.44;;;10.03;100.00
47220;BME280;32961;51.936;4.788;2024-03-22T08:11:39;101706.78;;;10.00;100.00
47220;BME280;32961;51.936;4.788;2024-03-22T08:14:05;101700.63;;;9.98;100.00
47220;BME280;32961;51.936;4.788;2024-03-22T08:16:32;101693.09;;;10.02;100.00
47220;BME280;32961;51.936;4.788;2024-03-22T08:18:58;101703.59;;;10.06;100.00
47220;BME280;32961;51.936;4.788;2024-03-22T08:21:24;101705.59;;;10.04;100.00
47220;BME280;32961;51.936;4.788;2024-03-22T08:23:52;101714.59;;;10.05;100.00
47220;BME280;32961;51.936;4.788;2024-03-22T08:26:19;101708.53;;;10.01;100.00
47220;BME280;32961;51.936;4.788;2024-03-22T08:28:46;101700.50;;;10.00;100.00
47220;BME280;32961;51.936;4.788;2024-03-22T08:31:13;101720.88;;;10.05;100.00
47220;BME280;32961;51.936;4.788;2024-03-22T08:33:39;101707.19;;;10.07;100.00
47220;BME280;32961;51.936;4.788;2024-03-22T08:36:06;101710.75;;;10.07;100.00
47220;BME280;32961;51.936;4.788;2024-03-22T08:38:32;101707.91;;;10.09;100.00
47220;BME280;32961;51.936;4.788;2024-03-22T08:41:01;101707.19;;;10.07;100.00
47220;BME280;32961;51.936;4.788;2024-03-22T08:43:26;101704.56;;;10.05;100.00
47220;BME280;32961;51.936;4.788;2024-03-22T08:45:54;101699.16;;;10.05;100.00
47220;BME280;32961;51.936;4.788;2024-03-22T08:48:21;101699.69;;;10.10;100.00
47220;BME280;32961;51.936;4.788;2024-03-22T08:50:51;101704.34;;;10.08;100.00
47220;BME280;32961;51.936;4.788;2024-03-22T08:53:17;101700.03;;;10.06;100.00
47220;BME280;32961;51.936;4.788;2024-03-22T08:55:47;101698.16;;;10.06;100.00
47220;BME280;32961;51.936;4.788;2024-03-22T08:58:15;101698.28;;;10.05;100.00
47220;BME280;32961;51.936;4.788;2024-03-22T09:00:43;101694.94;;;10.01;100.00
47220;BME280;32961;51.936;4.788;2024-03-22T09:03:09;101693.22;;;10.00;100.00
47220;BME280;32961;51.936;4.788;2024-03-22T09:05:36;101686.81;;;10.01;100.00
47220;BME280;32961;51.936;4.788;2024-03-22T09:08:02;101686.94;;;10.00;100.00
47220;BME280;32961;51.936;4.788;2024-03-22T09:10:29;101690.28;;;10.03;100.00
47220;BME280;32961;51.936;4.788;2024-03-22T09:12:55;101681.88;;;10.06;100.00
47220;BME280;32961;51.936;4.788;2024-03-22T09:15:23;101688.19;;;10.07;100.00
47220;BME280;32961;51.936;4.788;2024-03-22T09:17:51;101692.75;;;10.06;100.00
47220;BME280;32961;51.936;4.788;2024-03-22T09:20:18;101680.41;;;10.02;100.00
47220;BME280;32961;51.936;4.788;2024-03-22T09:22:44;101682.22;;;10.02;100.00
47220;BME280;32961;51.936;4.788;2024-03-22T09:25:11;101682.22;;;10.02;100.00
47220;BME280;32961;51.936;4.788;2024-03-22T09:27:38;101683.25;;;10.01;100.00
47220;BME280;32961;51.936;4.788;2024-03-22T09:30:06;101687.66;;;10.02;100.00
47220;BME280;32961;51.936;4.788;2024-03-22T09:32:33;101679.50;;;10.02;100.00
47220;BME280;32961;51.936;4.788;2024-03-22T09:35:00;101685.97;;;10.01;100.00
47220;BME280;32961;51.936;4.788;2024-03-22T09:37:27;101684.72;;;9.93;100.00
47220;BME280;32961;51.936;4.788;2024-03-22T09:39:53;101686.53;;;9.93;100.00
47220;BME280;32961;51.936;4.788;2024-03-22T09:42:22;101681.00;;;9.94;100.00
47220;BME280;32961;51.936;4.788;2024-03-22T09:44:49;101689.88;;;9.96;100.00
47220;BME280;32961;51.936;4.788;2024-03-22T09:47:16;101688.28;;;9.94;100.00
47220;BME280;32961;51.936;4.788;2024-03-22T09:49:44;101674.81;;;9.92;100.00
47220;BME280;32961;51.936;4.788;2024-03-22T09:52:13;101679.66;;;10.00;100.00
47220;BME280;32961;51.936;4.788;2024-03-22T09:54:41;101678.91;;;9.98;100.00
47220;BME280;32961;51.936;4.788;2024-03-22T09:57:12;101674.22;;;10.00;100.00
47220;BME280;32961;51.936;4.788;2024-03-22T09:59:39;101675.94;;;10.01;100.00
47220;BME280;32961;51.936;4.788;2024-03-22T10:02:08;101663.97;;;10.04;100.00
47220;BME280;32961;51.936;4.788;2024-03-22T10:04:36;101658.81;;;10.01;100.00
47220;BME280;32961;51.936;4.788;2024-03-22T10:07:04;101668.44;;;10.05;100.00
47220;BME280;32961;51.936;4.788;2024-03-22T10:09:30;101664.09;;;10.02;100.00
47220;BME280;32961;51.936;4.788;2024-03-22T10:11:58;101666.56;;;10.05;100.00
47220;BME280;32961;51.936;4.788;2024-03-22T10:14:24;101665.59;;;10.06;100.00
47220;BME280;32961;51.936;4.788;2024-03-22T10:16:52;101668.06;;;10.09;100.00
47220;BME280;32961;51.936;4.788;2024-03-22T10:19:20;101670.78;;;10.09;100.00
47220;BME280;32961;51.936;4.788;2024-03-22T10:21:47;101667.19;;;10.09;100.00
47220;BME280;32961;51.936;4.788;2024-03-22T10:24:15;101672.63;;;10.09;100.00
47220;BME280;32961;51.936;4.788;2024-03-22T10:26:42;101664.38;;;10.10;100.00
47220;BME280;32961;51.936;4.788;2024-03-22T10:29:08;101673.25;;;10.12;100.00
47220;BME280;32961;51.936;4.788;2024-03-22T10:31:35;101670.66;;;10.11;100.00
47220;BME280;32961;51.936;4.788;2024-03-22T10:34:02;101679.44;;;10.15;100.00
47220;BME280;32961;51.936;4.788;2024-03-22T10:36:31;101671.78;;;10.20;100.00
47220;BME280;32961;51.936;4.788;2024-03-22T10:38:58;101674.25;;;10.23;100.00
47220;BME280;32961;51.936;4.788;2024-03-22T10:41:26;101663.13;;;10.26;100.00
47220;BME280;32961;51.936;4.788;2024-03-22T10:43:52;101674.13;;;10.24;100.00
47220;BME280;32961;51.936;4.788;2024-03-22T10:46:20;101682.06;;;10.27;100.00
47220;BME280;32961;51.936;4.788;2024-03-22T10:48:46;101674.25;;;10.23;100.00
47220;BME280;32961;51.936;4.788;2024-03-22T10:51:14;101672.41;;;10.23;100.00
47220;BME280;32961;51.936;4.788;2024-03-22T10:53:41;101669.19;;;10.30;100.00
47220;BME280;32961;51.936;4.788;2024-03-22T10:56:09;101675.06;;;10.36;100.00
47220;BME280;32961;51.936;4.788;2024-03-22T10:58:40;101666.78;;;10.38;100.00
47220;BME280;32961;51.936;4.788;2024-03-22T11:01:21;101668.56;;;10.26;100.00
47220;BME280;32961;51.936;4.788;2024-03-22T11:03:47;101663.41;;;10.23;100.00
47220;BME280;32961;51.936;4.788;2024-03-22T11:06:18;101653.88;;;10.28;100.00
47220;BME280;32961;51.936;4.788;2024-03-22T11:08:44;101657.59;;;10.27;100.00
47220;BME280;32961;51.936;4.788;2024-03-22T11:11:12;101655.88;;;10.26;100.00
47220;BME280;32961;51.936;4.788;2024-03-22T11:13:39;101649.69;;;10.36;100.00
47220;BME280;32961;51.936;4.788;2024-03-22T11:16:09;101649.13;;;10.43;100.00
47220;BME280;32961;51.936;4.788;2024-03-22T11:18:35;101640.47;;;10.50;100.00
47220;BME280;32961;51.936;4.788;2024-03-22T11:21:02;101652.94;;;10.52;100.00
47220;BME280;32961;51.936;4.788;2024-03-22T11:23:29;101653.56;;;10.56;100.00
47220;BME280;32961;51.936;4.788;2024-03-22T11:25:56;101646.63;;;10.52;100.00
47220;BME280;32961;51.936;4.788;2024-03-22T11:28:22;101637.84;;;10.48;100.00
47220;BME280;32961;51.936;4.788;2024-03-22T11:30:49;101641.94;;;10.42;100.00
47220;BME280;32961;51.936;4.788;2024-03-22T11:33:17;101651.56;;;10.35;100.00
47220;BME280;32961;51.936;4.788;2024-03-22T11:35:44;101642.16;;;10.28;100.00
47220;BME280;32961;51.936;4.788;2024-03-22T11:38:10;101628.59;;;10.17;100.00
47220;BME280;32961;51.936;4.788;2024-03-22T11:40:37;101633.34;;;10.02;100.00
47220;BME280;32961;51.936;4.788;2024-03-22T11:43:03;101635.72;;;10.06;100.00
47220;BME280;32961;51.936;4.788;2024-03-22T11:45:31;101635.34;;;10.22;100.00
47220;BME280;32961;51.936;4.788;2024-03-22T11:48:01;101638.47;;;10.29;100.00
47220;BME280;32961;51.936;4.788;2024-03-22T11:50:30;101631.44;;;10.26;100.00
47220;BME280;32961;51.936;4.788;2024-03-22T11:52:56;101632.53;;;10.24;100.00
47220;BME280;32961;51.936;4.788;2024-03-22T11:55:26;101621.41;;;10.27;100.00
47220;BME280;32961;51.936;4.788;2024-03-22T11:57:53;101630.94;;;10.33;100.00
47220;BME280;32961;51.936;4.788;2024-03-22T12:00:20;101631.59;;;10.36;100.00
47220;BME280;32961;51.936;4.788;2024-03-22T12:02:48;101625.25;;;10.13;100.00
47220;BME280;32961;51.936;4.788;2024-03-22T12:05:15;101624.50;;;10.22;100.00
47220;BME280;32961;51.936;4.788;2024-03-22T12:07:42;101615.34;;;10.35;100.00
47220;BME280;32961;51.936;4.788;2024-03-22T12:10:09;101619.44;;;10.29;100.00
47220;BME280;32961;51.936;4.788;2024-03-22T12:12:35;101617.81;;;10.15;100.00
47220;BME280;32961;51.936;4.788;2024-03-22T12:15:02;101619.31;;;10.08;100.00
47220;BME280;32961;51.936;4.788;2024-03-22T12:17:31;101611.66;;;10.13;100.00
47220;BME280;32961;51.936;4.788;2024-03-22T12:19:59;101605.38;;;10.24;100.00
47220;BME280;32961;51.936;4.788;2024-03-22T12:22:26;101604.75;;;10.32;100.00
47220;BME280;32961;51.936;4.788;2024-03-22T12:24:54;101595.72;;;10.31;100.00
47220;BME280;32961;51.936;4.788;2024-03-22T12:27:20;101588.19;;;10.35;100.00
47220;BME280;32961;51.936;4.788;2024-03-22T12:29:47;101590.69;;;10.38;100.00
47220;BME280;32961;51.936;4.788;2024-03-22T12:32:13;101589.91;;;10.36;100.00
47220;BME280;32961;51.936;4.788;2024-03-22T12:34:40;101583.38;;;10.27;100.00
47220;BME280;32961;51.936;4.788;2024-03-22T12:37:06;101574.00;;;10.31;100.00
47220;BME280;32961;51.936;4.788;2024-03-22T12:39:33;101575.16;;;10.40;100.00
47220;BME280;32961;51.936;4.788;2024-03-22T12:42:00;101577.47;;;10.33;100.00